createdAt,value
2022-09-23T00:01:05.472Z,70.27
2022-09-23T00:03:33.300Z,69.84
2022-09-23T00:06:01.329Z,69.91
2022-09-23T00:08:28.746Z,70.24
2022-09-23T00:10:55.820Z,70.08
2022-09-23T00:13:24.841Z,70.76
2022-09-23T00:15:51.725Z,70.71
2022-09-23T00:18:20.468Z,70.40
2022-09-23T00:20:47.265Z,70.39
2022-09-23T00:23:13.949Z,70.39
2022-09-23T00:25:40.448Z,70.32
2022-09-23T00:28:06.945Z,70.78
2022-09-23T00:30:33.664Z,70.51
2022-09-23T00:33:00.228Z,70.73
2022-09-23T00:35:26.836Z,71.07
2022-09-23T00:37:53.379Z,70.97
2022-09-23T00:40:19.969Z,71.05
2022-09-23T00:42:49.170Z,71.20
2022-09-23T00:45:16.116Z,70.61
2022-09-23T00:48:01.649Z,71.04
2022-09-23T00:50:37.646Z,70.97
2022-09-23T00:53:07.977Z,71.14
2022-09-23T00:55:39.084Z,71.08
2022-09-23T00:58:09.664Z,71.01
2022-09-23T01:00:36.210Z,70.93
2022-09-23T01:03:05.091Z,71.26
2022-09-23T01:05:33.494Z,71.21
2022-09-23T01:08:02.682Z,70.90
2022-09-23T01:10:56.893Z,71.20
2022-09-23T01:13:29.412Z,70.91
2022-09-23T01:16:08.345Z,71.20
2022-09-23T01:18:43.479Z,71.10
2022-09-23T01:21:31.527Z,71.08
2022-09-23T01:24:14.944Z,71.27
2022-09-23T01:26:56.727Z,71.37
2022-09-23T01:30:05.541Z,71.16
2022-09-23T01:33:11.129Z,71.16
2022-09-23T01:36:22.004Z,70.98
2022-09-23T01:39:07.929Z,71.51
2022-09-23T01:41:47.130Z,71.63
2022-09-23T01:44:24.221Z,71.72
2022-09-23T01:46:56.641Z,71.64
2022-09-23T01:49:32.453Z,71.96
2022-09-23T01:52:16.141Z,72.12
2022-09-23T01:54:50.609Z,72.23
2022-09-23T01:57:29.401Z,72.13
2022-09-23T02:00:04.302Z,72.64
2022-09-23T02:02:49.205Z,72.69
2022-09-23T02:05:27.356Z,72.99
2022-09-23T02:08:05.868Z,73.00
2022-09-23T02:10:35.968Z,72.71
2022-09-23T02:13:08.616Z,72.69
2022-09-23T02:15:46.481Z,72.38
2022-09-23T02:18:20.376Z,72.25
2022-09-23T02:20:48.948Z,72.75
2022-09-23T02:23:21.135Z,72.92
2022-09-23T02:25:50.529Z,72.52
2022-09-23T02:28:39.623Z,72.83
2022-09-23T02:31:19.810Z,72.64
2022-09-23T02:33:53.024Z,73.03
2022-09-23T02:36:32.996Z,73.25
2022-09-23T02:39:05.900Z,73.52
2022-09-23T02:41:37.739Z,73.46
2022-09-23T02:44:07.561Z,72.04
2022-09-23T02:46:35.177Z,72.60
2022-09-23T02:49:20.179Z,73.11
2022-09-23T02:51:47.019Z,73.04
2022-09-23T02:54:18.193Z,73.27
2022-09-23T02:56:44.836Z,73.05
2022-09-23T02:59:12.478Z,73.42
2022-09-23T03:02:04.973Z,73.24
2022-09-23T03:05:03.729Z,73.55
2022-09-23T03:08:03.869Z,73.40
2022-09-23T03:10:42.673Z,73.68
2022-09-23T03:13:29.466Z,73.96
2022-09-23T03:16:24.674Z,73.61
2022-09-23T03:19:15.277Z,73.99
2022-09-23T03:21:49.260Z,73.98
2022-09-23T03:24:18.256Z,73.69
2022-09-23T03:26:47.879Z,73.95
2022-09-23T03:29:16.773Z,73.69
2022-09-23T03:31:44.755Z,74.20
2022-09-23T03:34:20.280Z,74.02
2022-09-23T03:37:11.227Z,73.94
2022-09-23T03:39:44.293Z,74.60
2022-09-23T03:42:30.960Z,74.68
2022-09-23T03:44:58.344Z,75.21
2022-09-23T03:47:26.817Z,74.95
2022-09-23T03:49:54.264Z,75.20
2022-09-23T03:52:23.539Z,75.37
2022-09-23T03:54:51.973Z,75.36
2022-09-23T03:57:21.947Z,75.35
2022-09-23T03:59:52.361Z,75.52
2022-09-23T04:02:20.546Z,76.05
2022-09-23T04:04:47.211Z,75.96
2022-09-23T04:07:14.668Z,75.94
2022-09-23T04:09:41.385Z,76.28
2022-09-23T04:12:11.704Z,76.34
2022-09-23T04:14:38.228Z,76.09
2022-09-23T04:17:04.736Z,76.19
2022-09-23T04:19:31.209Z,76.00
2022-09-23T04:21:57.721Z,76.08
2022-09-23T04:24:24.467Z,76.44
2022-09-23T04:26:53.315Z,76.78
2022-09-23T04:29:20.732Z,76.78
2022-09-23T04:31:47.945Z,76.67
2022-09-23T04:34:15.879Z,77.24
2022-09-23T04:36:42.862Z,77.06
2022-09-23T04:39:09.336Z,77.13
2022-09-23T04:41:36.023Z,77.36
2022-09-23T04:44:03.082Z,77.83
2022-09-23T04:46:30.009Z,77.44
2022-09-23T04:48:56.844Z,77.75
2022-09-23T04:51:25.396Z,77.96
2022-09-23T04:53:53.741Z,78.25
2022-09-23T04:56:23.492Z,78.38
2022-09-23T04:58:50.747Z,78.20
2022-09-23T05:01:26.759Z,78.75
2022-09-23T05:03:57.761Z,78.59
2022-09-23T05:06:25.042Z,78.24
2022-09-23T05:08:56.143Z,78.58
2022-09-23T05:11:23.741Z,78.01
2022-09-23T05:13:52.884Z,78.69
2022-09-23T05:16:20.706Z,78.63
2022-09-23T05:18:49.053Z,78.60
2022-09-23T05:21:23.979Z,78.60
2022-09-23T05:23:55.455Z,78.72
2022-09-23T05:26:25.224Z,78.61
2022-09-23T05:28:52.379Z,78.32
2022-09-23T05:31:22.222Z,79.07
2022-09-23T05:33:51.975Z,78.72
2022-09-23T05:36:20.503Z,79.14
2022-09-23T05:38:49.213Z,78.91
2022-09-23T05:41:16.437Z,78.99
2022-09-23T05:43:43.289Z,79.20
2022-09-23T05:46:12.735Z,79.91
2022-09-23T05:48:40.777Z,79.50
2022-09-23T05:51:12.725Z,80.17
2022-09-23T05:53:44.822Z,79.66
2022-09-23T05:56:16.974Z,79.36
2022-09-23T05:58:44.101Z,79.93
2022-09-23T06:01:17.964Z,79.65
2022-09-23T06:03:48.931Z,80.12
2022-09-23T06:06:18.042Z,80.01
2022-09-23T06:08:46.032Z,80.09
2022-09-23T06:11:13.605Z,80.19
2022-09-23T06:13:41.098Z,79.76
2022-09-23T06:16:12.842Z,79.80
2022-09-23T06:18:40.194Z,78.72
2022-09-23T06:21:07.764Z,79.95
2022-09-23T06:23:37.516Z,80.23
2022-09-23T06:26:08.757Z,80.31
2022-09-23T06:28:37.826Z,81.01
2022-09-23T06:31:12.953Z,80.97
2022-09-23T06:33:40.267Z,80.84
2022-09-23T06:36:07.765Z,80.65
2022-09-23T06:38:35.028Z,80.71
2022-09-23T06:41:03.066Z,81.39
2022-09-23T06:43:30.060Z,80.57
2022-09-23T06:45:58.440Z,80.36
2022-09-23T06:48:26.201Z,79.98
2022-09-23T06:50:53.801Z,80.48
2022-09-23T06:53:23.593Z,80.43
2022-09-23T06:56:05.500Z,80.56
2022-09-23T06:58:33.491Z,80.26
2022-09-23T07:01:05.043Z,80.19
2022-09-23T07:03:34.316Z,80.14
2022-09-23T07:06:01.155Z,80.13
2022-09-23T07:08:29.318Z,79.87
2022-09-23T07:10:58.205Z,79.98
2022-09-23T07:13:25.697Z,80.19
2022-09-23T07:15:53.689Z,79.92
2022-09-23T07:18:23.739Z,79.41
2022-09-23T07:20:50.749Z,80.70
2022-09-23T07:23:17.823Z,80.48
2022-09-23T07:25:50.223Z,81.29
2022-09-23T07:28:17.103Z,81.03
2022-09-23T07:30:56.159Z,80.31
2022-09-23T07:33:32.329Z,80.17
2022-09-23T07:35:59.450Z,80.76
2022-09-23T07:38:29.803Z,81.32
2022-09-23T07:41:08.812Z,80.28
2022-09-23T07:43:35.658Z,80.70
2022-09-23T07:46:06.955Z,81.85
2022-09-23T07:48:34.848Z,81.53
2022-09-23T07:51:08.099Z,81.16
2022-09-23T07:53:34.720Z,81.37
2022-09-23T07:56:01.540Z,81.45
2022-09-23T07:58:28.075Z,80.85
2022-09-23T08:00:54.562Z,80.99
2022-09-23T08:03:21.290Z,79.60
2022-09-23T08:05:48.118Z,79.68
2022-09-23T08:08:14.777Z,81.50
2022-09-23T08:10:41.287Z,80.12
2022-09-23T08:13:07.780Z,80.18
2022-09-23T08:15:34.372Z,80.85
2022-09-23T08:18:01.471Z,80.17
2022-09-23T08:20:47.757Z,79.74
2022-09-23T08:23:16.143Z,79.72
2022-09-23T08:25:46.857Z,78.93
2022-09-23T08:28:16.682Z,79.67
2022-09-23T08:30:44.429Z,79.61
2022-09-23T08:33:14.144Z,80.00
2022-09-23T08:35:41.044Z,79.28
2022-09-23T08:38:08.184Z,79.73
2022-09-23T08:40:38.980Z,80.25
2022-09-23T08:43:29.901Z,79.03
2022-09-23T08:46:02.505Z,78.86
2022-09-23T08:48:49.523Z,78.65
2022-09-23T08:51:23.636Z,78.83
2022-09-23T08:53:50.314Z,79.48
2022-09-23T08:56:23.229Z,79.10
2022-09-23T08:59:14.714Z,78.78
2022-09-23T09:01:45.202Z,78.12
2022-09-23T09:04:17.732Z,79.27
2022-09-23T09:06:53.099Z,78.25
2022-09-23T09:09:25.336Z,78.78
2022-09-23T09:11:58.836Z,78.55
2022-09-23T09:14:45.968Z,78.68
2022-09-23T09:17:38.287Z,78.16
2022-09-23T09:20:24.575Z,77.34
2022-09-23T09:22:53.159Z,78.48
2022-09-23T09:25:23.975Z,77.09
2022-09-23T09:27:52.045Z,75.13
2022-09-23T09:30:19.493Z,73.98
2022-09-23T09:32:51.920Z,75.42
2022-09-23T09:35:27.264Z,74.62
2022-09-23T09:37:53.796Z,74.80
2022-09-23T09:40:20.757Z,75.46
2022-09-23T09:42:49.561Z,74.48
2022-09-23T09:45:24.186Z,75.27
2022-09-23T09:48:00.355Z,74.22
2022-09-23T09:50:47.176Z,74.99
2022-09-23T09:53:23.765Z,74.75
2022-09-23T09:56:04.396Z,74.64
2022-09-23T09:58:41.539Z,74.29
2022-09-23T10:01:08.355Z,73.40
2022-09-23T10:03:41.375Z,72.86
2022-09-23T10:06:24.312Z,72.80
2022-09-23T10:09:18.955Z,71.68
2022-09-23T10:12:15.383Z,71.08
2022-09-23T10:14:42.750Z,71.27
2022-09-23T10:17:17.687Z,72.83
2022-09-23T10:19:47.438Z,70.60
2022-09-23T10:22:29.828Z,70.20
2022-09-23T10:25:01.430Z,68.73
2022-09-23T10:27:34.501Z,68.65
2022-09-23T10:30:21.495Z,68.82
2022-09-23T10:32:48.895Z,68.98
2022-09-23T10:35:22.416Z,67.27
2022-09-23T10:37:54.127Z,67.52
2022-09-23T10:40:39.381Z,69.63
2022-09-23T10:43:43.414Z,68.98
2022-09-23T10:46:45.844Z,67.66
2022-09-23T10:49:33.037Z,66.19
2022-09-23T10:52:15.949Z,66.73
2022-09-23T10:55:01.403Z,67.64
2022-09-23T10:57:46.438Z,66.95
2022-09-23T11:00:23.004Z,65.71
2022-09-23T11:03:34.265Z,65.98
2022-09-23T11:06:06.472Z,66.22
2022-09-23T11:08:54.256Z,66.09
2022-09-23T11:11:58.532Z,66.32
2022-09-23T11:14:51.452Z,64.68
2022-09-23T11:17:51.054Z,65.99
2022-09-23T11:20:41.261Z,65.36
2022-09-23T11:23:40.574Z,65.23
2022-09-23T11:26:33.250Z,64.19
2022-09-23T11:29:25.259Z,64.72
2022-09-23T11:32:09.173Z,63.19
2022-09-23T11:35:15.080Z,63.83
2022-09-23T11:37:52.842Z,63.06
2022-09-23T11:40:24.128Z,62.91
2022-09-23T11:42:59.711Z,61.41
2022-09-23T11:45:34.466Z,62.11
2022-09-23T11:48:09.627Z,62.04
2022-09-23T11:50:49.964Z,62.82
2022-09-23T11:53:31.393Z,64.60
2022-09-23T11:56:07.280Z,62.97
2022-09-23T11:58:55.842Z,63.04
2022-09-23T12:01:38.062Z,62.06
2022-09-23T12:04:24.104Z,60.57
2022-09-23T12:06:57.828Z,60.70
2022-09-23T12:09:57.162Z,61.55
2022-09-23T12:12:31.510Z,60.46
2022-09-23T12:15:19.944Z,59.77
2022-09-23T12:18:06.363Z,60.05
2022-09-23T12:20:53.713Z,60.96
2022-09-23T12:23:57.635Z,60.61
2022-09-23T12:26:25.402Z,61.21
2022-09-23T12:28:58.854Z,61.18
2022-09-23T12:31:30.543Z,60.08
2022-09-23T12:33:59.028Z,61.41
2022-09-23T12:36:35.941Z,59.48
2022-09-23T12:39:14.944Z,59.29
2022-09-23T12:41:43.675Z,60.16
2022-09-23T12:44:28.806Z,60.50
2022-09-23T12:47:29.913Z,60.18
2022-09-23T12:49:56.612Z,59.55
2022-09-23T12:52:33.331Z,60.23
2022-09-23T12:55:35.323Z,59.88
2022-09-23T12:58:01.663Z,60.71
2022-09-23T13:00:33.517Z,57.54
2022-09-23T13:03:19.879Z,59.75
2022-09-23T13:06:09.858Z,58.21
2022-09-23T13:08:41.600Z,57.69
2022-09-23T13:11:26.135Z,58.61
2022-09-23T13:13:56.853Z,59.29
2022-09-23T13:16:32.329Z,59.00
2022-09-23T13:19:05.390Z,59.61
2022-09-23T13:21:44.753Z,59.27
2022-09-23T13:24:23.171Z,59.26
2022-09-23T13:26:51.137Z,59.20
2022-09-23T13:29:27.012Z,59.66
2022-09-23T13:31:57.789Z,59.59
2022-09-23T13:34:28.811Z,58.94
2022-09-23T13:36:55.301Z,59.49
2022-09-23T13:39:26.673Z,59.64
2022-09-23T13:41:56.361Z,59.09
2022-09-23T13:44:23.573Z,59.90
2022-09-23T13:46:58.066Z,60.21
2022-09-23T13:49:32.387Z,60.07
2022-09-23T13:51:59.653Z,60.26
2022-09-23T13:54:31.985Z,60.38
2022-09-23T13:56:58.865Z,60.03
2022-09-23T13:59:38.084Z,60.50
2022-09-23T14:02:16.817Z,61.57
2022-09-23T14:04:44.365Z,61.18
2022-09-23T14:07:13.277Z,61.57
2022-09-23T14:09:45.446Z,61.90
2022-09-23T14:12:12.261Z,62.13
2022-09-23T14:14:41.102Z,62.16
2022-09-23T14:17:10.265Z,62.80
2022-09-23T14:19:37.174Z,63.05
2022-09-23T14:22:03.670Z,62.93
2022-09-23T14:24:30.103Z,63.33
2022-09-23T14:27:01.452Z,63.76
2022-09-23T14:29:33.985Z,64.13
2022-09-23T14:32:06.518Z,64.75
2022-09-23T14:34:57.595Z,64.29
2022-09-23T14:37:48.842Z,63.88
2022-09-23T14:40:22.396Z,64.03
2022-09-23T14:42:56.852Z,64.79
2022-09-23T14:45:30.476Z,65.00
2022-09-23T14:48:00.879Z,65.25
2022-09-23T14:50:46.975Z,64.76
2022-09-23T14:53:22.740Z,65.63
2022-09-23T14:55:57.224Z,66.02
2022-09-23T14:58:30.335Z,65.92
2022-09-23T15:01:01.302Z,66.65
2022-09-23T15:03:28.691Z,66.88
2022-09-23T15:06:09.026Z,66.79
2022-09-23T15:08:35.872Z,67.75
2022-09-23T15:11:08.071Z,67.42
2022-09-23T15:13:40.270Z,67.25
2022-09-23T15:16:08.190Z,67.36
2022-09-23T15:18:36.857Z,67.97
2022-09-23T15:21:19.273Z,67.24
2022-09-23T15:23:51.548Z,67.71
2022-09-23T15:26:20.191Z,67.53
2022-09-23T15:28:47.806Z,67.62
2022-09-23T15:31:19.340Z,67.68
2022-09-23T15:33:49.647Z,67.03
2022-09-23T15:36:25.822Z,67.63
2022-09-23T15:38:52.963Z,67.96
2022-09-23T15:41:19.443Z,68.79
2022-09-23T15:43:46.901Z,68.91
2022-09-23T15:46:24.634Z,68.83
2022-09-23T15:48:59.054Z,69.50
2022-09-23T15:51:27.328Z,68.98
2022-09-23T15:53:55.177Z,69.00
2022-09-23T15:56:22.694Z,69.23
2022-09-23T15:58:49.523Z,69.68
2022-09-23T16:01:43.226Z,69.62
2022-09-23T16:04:11.717Z,69.66
2022-09-23T16:06:39.565Z,69.78
2022-09-23T16:09:06.111Z,70.12
2022-09-23T16:11:32.769Z,70.26
2022-09-23T16:14:00.597Z,70.32
2022-09-23T16:16:27.995Z,70.73
2022-09-23T16:18:54.720Z,70.70
2022-09-23T16:21:24.813Z,70.81
2022-09-23T16:23:53.352Z,71.39
2022-09-23T16:26:29.529Z,71.05
2022-09-23T16:28:58.043Z,71.36
2022-09-23T16:31:25.764Z,70.57
2022-09-23T16:33:53.449Z,71.04
2022-09-23T16:36:33.348Z,71.23
2022-09-23T16:39:02.713Z,71.31
2022-09-23T16:41:31.465Z,71.19
2022-09-23T16:44:00.486Z,71.61
2022-09-23T16:46:27.752Z,71.92
2022-09-23T16:48:55.529Z,72.49
2022-09-23T16:51:26.358Z,72.35
2022-09-23T16:53:54.195Z,72.75
2022-09-23T16:56:27.441Z,72.82
2022-09-23T16:58:54.934Z,73.16
2022-09-23T17:01:42.866Z,73.16
2022-09-23T17:04:10.553Z,73.35
2022-09-23T17:06:52.224Z,74.05
2022-09-23T17:09:23.280Z,74.43
2022-09-23T17:11:59.206Z,74.55
2022-09-23T17:14:25.873Z,74.80
2022-09-23T17:16:52.344Z,74.19
2022-09-23T17:19:18.845Z,75.46
2022-09-23T17:21:45.321Z,75.62
2022-09-23T17:24:11.824Z,75.69
2022-09-23T17:26:38.286Z,75.80
2022-09-23T17:29:05.587Z,76.18
2022-09-23T17:31:32.323Z,76.40
2022-09-23T17:33:59.013Z,76.38
2022-09-23T17:36:25.521Z,76.57
2022-09-23T17:38:55.375Z,76.78
2022-09-23T17:41:22.009Z,76.71
2022-09-23T17:43:54.561Z,76.98
2022-09-23T17:46:21.151Z,76.48
2022-09-23T17:48:47.688Z,76.46
2022-09-23T17:51:19.725Z,76.53
2022-09-23T17:53:47.756Z,77.23
2022-09-23T17:56:18.324Z,77.34
2022-09-23T17:58:46.104Z,76.82
2022-09-23T18:01:15.828Z,77.44
2022-09-23T18:03:45.447Z,77.42
2022-09-23T18:06:14.733Z,77.94
2022-09-23T18:08:42.968Z,77.86
2022-09-23T18:11:25.415Z,77.96
2022-09-23T18:13:57.480Z,78.38
2022-09-23T18:16:27.272Z,78.50
2022-09-23T18:18:57.132Z,78.80
2022-09-23T18:21:26.100Z,78.46
2022-09-23T18:23:52.589Z,78.80
2022-09-23T18:26:21.433Z,77.96
2022-09-23T18:28:49.009Z,78.36
2022-09-23T18:31:16.320Z,78.57
2022-09-23T18:33:42.840Z,78.80
2022-09-23T18:36:10.109Z,79.57
2022-09-23T18:38:36.597Z,79.37
2022-09-23T18:41:03.196Z,79.62
2022-09-23T18:43:37.461Z,80.10
2022-09-23T18:46:09.495Z,79.50
2022-09-23T18:48:54.573Z,79.68
2022-09-23T18:51:25.361Z,79.75
2022-09-23T18:53:57.415Z,80.03
2022-09-23T18:56:30.944Z,80.29
2022-09-23T18:58:57.523Z,80.42
2022-09-23T19:01:24.593Z,79.90
2022-09-23T19:03:56.050Z,80.12
2022-09-23T19:06:23.296Z,80.01
2022-09-23T19:08:52.289Z,80.20
2022-09-23T19:11:19.501Z,80.57
2022-09-23T19:13:46.340Z,80.62
2022-09-23T19:16:16.558Z,80.24
2022-09-23T19:18:46.267Z,80.22
2022-09-23T19:21:14.105Z,80.86
2022-09-23T19:23:47.543Z,81.30
2022-09-23T19:26:16.791Z,80.89
2022-09-23T19:28:53.892Z,81.24
2022-09-23T19:31:29.883Z,80.68
2022-09-23T19:33:58.203Z,81.30
2022-09-23T19:36:33.125Z,81.33
2022-09-23T19:39:03.024Z,81.29
2022-09-23T19:41:35.239Z,81.51
2022-09-23T19:44:03.040Z,81.73
2022-09-23T19:46:37.819Z,82.13
2022-09-23T19:49:06.483Z,82.29
2022-09-23T19:51:34.551Z,82.54
2022-09-23T19:54:02.249Z,82.28
2022-09-23T19:56:29.845Z,82.34
2022-09-23T19:58:57.509Z,82.21
2022-09-23T20:01:26.196Z,82.05
2022-09-23T20:03:53.289Z,82.47
2022-09-23T20:06:20.292Z,82.61
2022-09-23T20:08:47.810Z,83.15
2022-09-23T20:11:16.911Z,83.72
2022-09-23T20:13:47.028Z,83.51
2022-09-23T20:16:15.561Z,84.13
2022-09-23T20:18:42.871Z,83.39
2022-09-23T20:21:11.738Z,83.78
2022-09-23T20:23:38.353Z,83.74
2022-09-23T20:26:24.375Z,84.67
2022-09-23T20:28:51.165Z,84.55
2022-09-23T20:31:20.694Z,85.27
2022-09-23T20:33:58.192Z,85.10
2022-09-23T20:36:26.064Z,85.02
2022-09-23T20:38:54.192Z,85.21
2022-09-23T20:41:21.114Z,85.00
2022-09-23T20:43:48.198Z,85.58
2022-09-23T20:46:17.546Z,85.54
2022-09-23T20:48:46.467Z,86.02
2022-09-23T20:51:12.937Z,85.42
2022-09-23T20:53:39.433Z,84.97
2022-09-23T20:56:06.182Z,85.51
2022-09-23T20:58:36.501Z,85.70
2022-09-23T21:01:11.010Z,85.70
2022-09-23T21:03:42.174Z,85.49
2022-09-23T21:06:09.666Z,85.24
2022-09-23T21:08:37.501Z,84.08
2022-09-23T21:11:06.752Z,84.12
2022-09-23T21:13:34.133Z,84.46
2022-09-23T21:16:05.283Z,84.34
2022-09-23T21:18:32.195Z,83.88
2022-09-23T21:20:59.760Z,83.94
2022-09-23T21:23:27.911Z,84.29
2022-09-23T21:26:20.124Z,84.59
2022-09-23T21:28:49.404Z,84.47
2022-09-23T21:31:25.855Z,84.23
2022-09-23T21:33:56.499Z,84.54
2022-09-23T21:36:24.504Z,84.05
2022-09-23T21:38:51.993Z,84.19
2022-09-23T21:41:19.154Z,84.45
2022-09-23T21:43:45.692Z,84.94
2022-09-23T21:46:14.522Z,85.15
2022-09-23T21:48:42.237Z,84.80
2022-09-23T21:51:14.355Z,85.05
2022-09-23T21:53:42.026Z,85.32
2022-09-23T21:56:20.739Z,85.91
2022-09-23T21:58:48.385Z,86.19
2022-09-23T22:01:26.413Z,86.28
2022-09-23T22:03:58.397Z,86.35
2022-09-23T22:06:30.467Z,86.44
2022-09-23T22:08:59.691Z,86.04
2022-09-23T22:11:51.526Z,86.77
2022-09-23T22:14:19.667Z,86.37
2022-09-23T22:16:46.377Z,86.75
2022-09-23T22:19:14.950Z,87.19
2022-09-23T22:21:43.882Z,87.26
2022-09-23T22:24:11.685Z,87.19
2022-09-23T22:26:40.481Z,87.26
2022-09-23T22:29:27.967Z,87.40
2022-09-23T22:32:13.212Z,87.41
2022-09-23T22:34:53.197Z,87.94
2022-09-23T22:37:28.405Z,87.97
2022-09-23T22:39:55.205Z,88.20
2022-09-23T22:42:22.322Z,88.53
2022-09-23T22:44:49.373Z,88.36
2022-09-23T22:47:17.525Z,88.16
2022-09-23T22:49:44.056Z,88.51
2022-09-23T22:52:11.188Z,88.25
2022-09-23T22:54:38.420Z,88.06
2022-09-23T22:57:06.521Z,88.19
2022-09-23T22:59:33.160Z,88.37
2022-09-23T23:02:00.169Z,88.14
2022-09-23T23:04:27.485Z,88.81
2022-09-23T23:06:53.968Z,88.44
2022-09-23T23:09:20.448Z,88.33
2022-09-23T23:11:47.348Z,88.35
2022-09-23T23:14:16.590Z,88.58
2022-09-23T23:16:45.123Z,88.45
2022-09-23T23:19:13.964Z,88.51
2022-09-23T23:21:43.367Z,88.80
2022-09-23T23:24:21.800Z,88.94
2022-09-23T23:26:49.098Z,89.22
2022-09-23T23:29:17.317Z,88.87
2022-09-23T23:31:44.044Z,89.06
2022-09-23T23:34:13.232Z,89.00
2022-09-23T23:36:41.433Z,89.14
2022-09-23T23:39:08.356Z,89.26
2022-09-23T23:41:34.910Z,89.44
2022-09-23T23:44:01.747Z,89.47
2022-09-23T23:46:30.626Z,89.29
2022-09-23T23:48:57.902Z,89.34
2022-09-23T23:51:26.345Z,89.56
2022-09-23T23:53:53.913Z,89.18
2022-09-23T23:56:25.033Z,89.87
2022-09-23T23:58:56.850Z,89.83
